Ana Sayfa
METAR-TAF:

METAR-TAF

Havaalanları :

Bangkok, Tayland

Enlem: 13-54-45N, Boylam: 100-36-24E, yükseklik: 4 m

Güncel hava durumu gözlemi

Rapor saat 11:00 UTC de 19 dakika önce yapıldı.
Rüzgar doğu/güneydoğudan 4 kt
Sıcaklık 28°C
Nem 45%
Basınç 1011 hPa
Görüş mesafesi 10 km veya daha fazla
1500 m altında bulut yok ve kümülonimbus yok

METAR: VTBD 111100Z 12004KT CAVOK 28/15 Q1011 NOSIG

Saat: 18:19 (11:19 UTC)

Tahmin

Rapor saat 05:00 UTC de 6 saat ve 19 dakika önce yapıldı.
Ayın 11'si saat 06 UTC'den ayın 12'si saat 12 UTC'ye kadar geçerli Tahmin
Rüzgar doğu/kuzeydoğudan 5 kt
Görüş mesafesi: 8000 m
Dönüşüyor
ayın 11'si saat 12 UTC'den ayın 11'si saat 14 UTC'ye kadar
Rüzgar kuzeydan 5 kt
Dönüşüyor
ayın 12'si saat 04 UTC'den ayın 12'si saat 06 UTC'ye kadar
Rüzgar doğu/kuzeydoğudan 5 kt

TAF: VTBD 110500Z 1106/1212 07005KT 8000 NSC BECMG 1112/1114 35005KT BECMG 1204/1206 07005KT

4.000'den fazla havaalanı için hava durumu gözlemleri ve tahminleri (METAR ve TAF raporları).

Kullanılabilir istasyonlar harita üzerinde sarı ve kırmızı noktalarla gösterilir.

İstasyonun adını görmek için fareyi noktanın üzerinde gezdirin.

Sonrasında hava gözlem ve tahminlerini görmek için tıklayın.

Haritayı değiştirmek için: yaklaştırmak için siyah artı işaretli yeşil düğmeye ve uzaklaştırmak için de eksi işaretli düğmeye hızla tıklayın; bitişik haritalar için yeşil okları kullanın.


METAR-TAF: